createdAt,value
2023-03-16T00:01:17.779Z,99825.06
2023-03-16T00:03:45.784Z,99825.31
2023-03-16T00:06:13.825Z,99836.91
2023-03-16T00:08:43.352Z,99840.41
2023-03-16T00:11:12.232Z,99840.41
2023-03-16T00:13:40.187Z,99840.41
2023-03-16T00:16:08.285Z,99837.72
2023-03-16T00:18:39.147Z,99847.69
2023-03-16T00:21:07.426Z,99840.88
2023-03-16T00:23:36.688Z,99850.59
2023-03-16T00:26:07.376Z,99842.94
2023-03-16T00:28:35.811Z,99846.47
2023-03-16T00:31:03.874Z,99849.16
2023-03-16T00:33:34.811Z,99855.59
2023-03-16T00:36:08.114Z,99854.78
2023-03-16T00:38:37.089Z,99848.78
2023-03-16T00:41:08.165Z,99860.38
2023-03-16T00:43:40.881Z,99859.81
2023-03-16T00:46:09.291Z,99855.22
2023-03-16T00:48:37.537Z,99850.66
2023-03-16T00:51:06.582Z,99855.22
2023-03-16T00:53:34.706Z,99850.66
2023-03-16T00:56:04.412Z,99854.41
2023-03-16T00:58:36.041Z,99857.31
2023-03-16T01:01:04.146Z,99867.03
2023-03-16T01:03:32.212Z,99866.47
2023-03-16T01:06:03.793Z,99859.41
2023-03-16T01:08:33.173Z,99861.06
2023-03-16T01:11:04.600Z,99862.50
2023-03-16T01:13:34.033Z,99869.75
2023-03-16T01:16:01.994Z,99868.91
2023-03-16T01:18:30.097Z,99864.34
2023-03-16T01:20:58.017Z,99868.72
2023-03-16T01:23:26.013Z,99869.75
2023-03-16T01:25:54.114Z,99864.34
2023-03-16T01:28:24.564Z,99868.72
2023-03-16T01:30:55.345Z,99870.59
2023-03-16T01:33:23.390Z,99868.09
2023-03-16T01:35:55.167Z,99863.53
2023-03-16T01:38:23.268Z,99871.00
2023-03-16T01:40:51.606Z,99878.28
2023-03-16T01:43:20.149Z,99880.16
2023-03-16T01:46:19.354Z,99879.31
2023-03-16T01:48:51.771Z,99873.13
2023-03-16T01:51:22.193Z,99877.66
2023-03-16T01:53:53.140Z,99881.41
2023-03-16T01:56:24.014Z,99882.47
2023-03-16T01:58:52.857Z,99881.41
2023-03-16T02:01:22.204Z,99879.78
2023-03-16T02:03:50.216Z,99888.06
2023-03-16T02:06:19.382Z,99889.13
2023-03-16T02:08:48.319Z,99886.41
2023-03-16T02:11:18.105Z,99886.41
2023-03-16T02:13:46.504Z,99881.84
2023-03-16T02:16:19.401Z,99879.38
2023-03-16T02:18:49.314Z,99883.94
2023-03-16T02:21:20.752Z,99884.75
2023-03-16T02:23:50.732Z,99905.28
2023-03-16T02:26:23.678Z,99901.75
2023-03-16T02:28:55.198Z,99904.22
2023-03-16T02:31:24.505Z,99898.03
2023-03-16T02:33:52.485Z,99900.47
2023-03-16T02:36:20.566Z,99908.56
2023-03-16T02:38:48.689Z,99908.56
2023-03-16T02:41:17.605Z,99912.13
2023-03-16T02:43:47.551Z,99907.75
2023-03-16T02:46:15.577Z,99915.00
2023-03-16T02:48:46.994Z,99912.53
2023-03-16T02:51:14.900Z,99912.53
2023-03-16T02:53:42.879Z,99909.00
2023-03-16T02:56:11.077Z,99910.88
2023-03-16T02:58:39.112Z,99909.25
2023-03-16T03:01:07.486Z,99903.00
2023-03-16T03:03:35.697Z,99917.31
2023-03-16T03:06:05.268Z,99904.72
2023-03-16T03:08:33.475Z,99911.31
2023-03-16T03:11:01.441Z,99918.59
2023-03-16T03:13:29.480Z,99920.22
2023-03-16T03:15:57.541Z,99921.28
2023-03-16T03:18:26.286Z,99930.38
2023-03-16T03:20:54.286Z,99934.97
2023-03-16T03:23:23.688Z,99934.16
2023-03-16T03:25:51.661Z,99934.97
2023-03-16T03:28:19.613Z,99935.19
2023-03-16T03:30:47.611Z,99940.59
2023-03-16T03:33:15.732Z,99939.53
2023-03-16T03:35:43.814Z,99938.72
2023-03-16T03:38:11.821Z,99944.72
2023-03-16T03:40:41.223Z,99940.34
2023-03-16T03:43:09.190Z,99947.41
2023-03-16T03:45:37.157Z,99949.03
2023-03-16T03:48:05.675Z,99954.44
2023-03-16T03:50:33.609Z,99943.88
2023-03-16T03:53:01.507Z,99951.13
2023-03-16T03:55:29.585Z,99958.19
2023-03-16T03:57:58.958Z,99958.19
2023-03-16T04:00:27.202Z,99965.22
2023-03-16T04:02:55.500Z,99961.91
2023-03-16T04:05:27.273Z,99971.03
2023-03-16T04:07:57.540Z,99980.16
2023-03-16T04:10:26.267Z,99973.94
2023-03-16T04:12:54.445Z,99979.34
2023-03-16T04:15:23.762Z,99983.91
2023-03-16T04:17:52.677Z,99993.63
2023-03-16T04:20:20.902Z,99990.94
2023-03-16T04:22:48.816Z,99990.94
2023-03-16T04:25:17.632Z,99991.97
2023-03-16T04:27:46.869Z,100002.16
2023-03-16T04:30:15.993Z,99997.81
2023-03-16T04:32:45.442Z,100006.72
2023-03-16T04:35:13.444Z,99998.00
2023-03-16T04:37:41.408Z,100002.59
2023-03-16T04:40:16.662Z,100005.06
2023-03-16T04:42:45.214Z,100012.31
2023-03-16T04:45:14.004Z,100008.78
2023-03-16T04:47:41.989Z,100005.72
2023-03-16T04:50:12.627Z,100022.50
2023-03-16T04:52:41.311Z,100025.78
2023-03-16T04:55:09.783Z,100031.16
2023-03-16T04:57:37.702Z,100022.06
2023-03-16T05:00:11.799Z,100027.44
2023-03-16T05:02:39.767Z,100034.47
2023-03-16T05:05:08.295Z,100032.84
2023-03-16T05:07:37.615Z,100035.53
2023-03-16T05:10:06.012Z,100033.66
2023-03-16T05:12:34.024Z,100035.28
2023-03-16T05:15:01.940Z,100040.69
2023-03-16T05:17:29.931Z,100036.34
2023-03-16T05:19:57.905Z,100040.09
2023-03-16T05:22:25.881Z,100047.34
2023-03-16T05:24:55.231Z,100045.69
2023-03-16T05:27:23.207Z,100053.16
2023-03-16T05:29:51.161Z,100058.53
2023-03-16T05:32:19.079Z,100052.56
2023-03-16T05:34:47.548Z,100063.94
2023-03-16T05:37:15.494Z,100063.34
2023-03-16T05:39:43.542Z,100064.97
2023-03-16T05:42:13.070Z,100067.66
2023-03-16T05:44:41.157Z,100069.53
2023-03-16T05:47:09.301Z,100067.66
2023-03-16T05:49:37.296Z,100075.75
2023-03-16T05:52:05.564Z,100078.88
2023-03-16T05:54:33.734Z,100079.69
2023-03-16T05:57:01.721Z,100085.91
2023-03-16T05:59:31.338Z,100084.88
2023-03-16T06:01:59.372Z,100093.78
2023-03-16T06:04:27.445Z,100094.19
2023-03-16T06:06:55.738Z,100094.19
2023-03-16T06:09:23.663Z,100095.81
2023-03-16T06:11:51.741Z,100090.44
2023-03-16T06:14:19.642Z,100099.38
2023-03-16T06:16:48.970Z,100096.44
2023-03-16T06:19:16.914Z,100097.06
2023-03-16T06:21:44.909Z,100111.38
2023-03-16T06:24:12.936Z,100107.84
2023-03-16T06:26:41.300Z,100107.84
2023-03-16T06:29:24.382Z,100116.56
2023-03-16T06:31:54.707Z,100119.25
2023-03-16T06:34:22.882Z,100127.31
2023-03-16T06:36:51.568Z,100121.94
2023-03-16T06:39:19.528Z,100128.97
2023-03-16T06:41:47.616Z,100137.88
2023-03-16T06:44:15.552Z,100130.66
2023-03-16T06:46:43.556Z,100130.66
2023-03-16T06:49:12.995Z,100142.25
2023-03-16T06:51:41.861Z,100132.28
2023-03-16T06:54:09.828Z,100132.28
2023-03-16T06:56:38.141Z,100135.59
2023-03-16T07:01:51.696Z,100138.28
2023-03-16T07:04:21.841Z,100138.88
2023-03-16T07:06:49.882Z,100155.06
2023-03-16T07:09:17.858Z,100143.25
2023-03-16T07:11:45.952Z,100144.69
2023-03-16T07:14:13.895Z,100149.84
2023-03-16T07:16:41.957Z,100145.09
2023-03-16T07:19:09.952Z,100148.59
2023-03-16T07:21:40.923Z,100154.41
2023-03-16T07:24:09.237Z,100163.31
2023-03-16T07:26:37.252Z,100160.41
2023-03-16T07:29:06.423Z,100156.69
2023-03-16T07:31:34.771Z,100169.34
2023-03-16T07:34:03.438Z,100162.88
2023-03-16T07:36:31.529Z,100170.97
2023-03-16T07:39:01.415Z,100182.16
2023-03-16T07:41:31.058Z,100182.75
2023-03-16T07:44:00.643Z,100188.16
2023-03-16T07:46:28.695Z,100190.66
2023-03-16T07:48:56.723Z,100188.78
2023-03-16T07:51:24.674Z,100196.03
2023-03-16T07:53:52.681Z,100192.53
2023-03-16T07:56:22.569Z,100196.03
2023-03-16T07:58:50.490Z,100191.69
2023-03-16T08:01:18.442Z,100191.47
2023-03-16T08:03:46.402Z,100203.69
2023-03-16T08:06:14.436Z,100204.75
2023-03-16T08:08:42.952Z,100202.25
2023-03-16T08:11:11.298Z,100200.63
2023-03-16T08:13:43.943Z,100201.44
2023-03-16T08:16:13.587Z,100205.78
2023-03-16T08:18:41.898Z,100211.16
2023-03-16T08:21:09.977Z,100217.38
2023-03-16T08:23:38.273Z,100216.38
2023-03-16T08:26:08.817Z,100220.69
2023-03-16T08:28:36.895Z,100218.44
2023-03-16T08:31:08.356Z,100224.25
2023-03-16T08:33:36.853Z,100216.78
2023-03-16T08:36:07.129Z,100228.16
2023-03-16T08:38:35.173Z,100227.94
2023-03-16T08:41:03.128Z,100224.81
2023-03-16T08:43:31.045Z,100217.56
2023-03-16T08:45:59.228Z,100228.34
2023-03-16T08:48:28.882Z,100221.91
2023-03-16T08:50:57.012Z,100229.56
2023-03-16T08:53:25.026Z,100228.53
2023-03-16T08:55:52.959Z,100227.50
2023-03-16T08:58:20.926Z,100233.47
2023-03-16T09:00:50.585Z,100224.38
2023-03-16T09:03:18.598Z,100228.72
2023-03-16T09:05:48.027Z,100220.00
2023-03-16T09:08:16.028Z,100234.09
2023-03-16T09:10:44.868Z,100235.16
2023-03-16T09:13:12.921Z,100234.94
2023-03-16T09:15:40.889Z,100236.81
2023-03-16T09:18:08.908Z,100228.28
2023-03-16T09:20:37.658Z,100246.53
2023-03-16T09:23:07.193Z,100231.16
2023-03-16T09:25:35.148Z,100244.06
2023-03-16T09:28:03.133Z,100238.03
2023-03-16T09:30:31.565Z,100236.56
2023-03-16T09:32:59.860Z,100232.41
2023-03-16T09:35:28.079Z,100246.91
2023-03-16T09:38:06.554Z,100246.91
2023-03-16T09:40:36.420Z,100245.88
2023-03-16T09:43:41.037Z,100252.09
2023-03-16T09:46:10.696Z,100259.38
2023-03-16T09:48:39.811Z,100255.00
2023-03-16T09:51:08.830Z,100256.06
2023-03-16T09:53:37.809Z,100266.84
2023-03-16T09:56:09.539Z,100259.81
2023-03-16T09:58:37.638Z,100253.56
2023-03-16T10:01:11.893Z,100257.28
2023-03-16T10:03:57.221Z,100251.47
2023-03-16T10:06:26.558Z,100255.63
2023-03-16T10:08:56.638Z,100263.09
2023-03-16T10:11:28.426Z,100265.19
2023-03-16T10:13:57.917Z,100258.31
2023-03-16T10:16:28.507Z,100246.88
2023-03-16T10:19:00.188Z,100244.41
2023-03-16T10:21:28.163Z,100264.34
2023-03-16T10:23:56.150Z,100255.19
2023-03-16T10:26:26.794Z,100266.59
2023-03-16T10:28:56.208Z,100271.16
2023-03-16T10:31:25.006Z,100259.75
2023-03-16T10:33:55.727Z,100266.22
2023-03-16T10:36:26.693Z,100264.34
2023-03-16T10:38:55.505Z,100264.97
2023-03-16T10:41:26.796Z,100263.06
2023-03-16T10:43:57.491Z,100253.72
2023-03-16T10:46:26.519Z,100246.69
2023-03-16T10:48:59.771Z,100250.41
2023-03-16T10:51:29.495Z,100256.88
2023-03-16T10:53:59.494Z,100247.72
2023-03-16T10:56:27.470Z,100260.78
2023-03-16T10:58:56.782Z,100249.38
2023-03-16T11:01:26.900Z,100256.81
2023-03-16T11:03:55.690Z,100245.38
2023-03-16T11:06:24.705Z,100247.25
2023-03-16T11:08:53.032Z,100244.13
2023-03-16T11:11:25.943Z,100241.88
2023-03-16T11:13:58.854Z,100244.00
2023-03-16T11:16:30.723Z,100244.00
2023-03-16T11:18:59.586Z,100245.63
2023-03-16T11:21:36.297Z,100236.47
2023-03-16T11:24:04.669Z,100241.03
2023-03-16T11:26:34.609Z,100246.00
2023-03-16T11:29:09.439Z,100228.97
2023-03-16T11:31:42.888Z,100244.56
2023-03-16T11:34:14.682Z,100235.22
2023-03-16T11:36:46.205Z,100249.97
2023-03-16T11:39:18.518Z,100236.66
2023-03-16T11:41:53.533Z,100243.31
2023-03-16T11:44:26.010Z,100227.31
2023-03-16T11:46:56.949Z,100238.53
2023-03-16T11:49:52.242Z,100245.00
2023-03-16T11:52:25.301Z,100238.97
2023-03-16T11:54:57.952Z,100243.56
2023-03-16T11:57:41.602Z,100241.03
2023-03-16T12:00:17.233Z,100242.25
2023-03-16T12:03:06.411Z,100233.13
2023-03-16T12:05:45.978Z,100234.59
2023-03-16T12:08:21.520Z,100240.19
2023-03-16T12:10:50.806Z,100239.38
2023-03-16T12:13:33.221Z,100242.28
2023-03-16T12:16:05.744Z,100230.66
2023-03-16T12:18:37.897Z,100233.34
2023-03-16T12:21:07.235Z,100235.41
2023-03-16T12:23:36.363Z,100241.22
2023-03-16T12:26:04.611Z,100237.66
2023-03-16T12:28:33.605Z,100237.28
2023-03-16T12:31:10.519Z,100236.47
2023-03-16T12:33:49.575Z,100240.16
2023-03-16T12:36:46.504Z,100238.06
2023-03-16T12:39:15.735Z,100246.00
2023-03-16T12:41:49.042Z,100243.50
2023-03-16T12:44:18.892Z,100242.06
2023-03-16T12:46:53.578Z,100244.75
2023-03-16T12:49:21.226Z,100250.16
2023-03-16T12:51:59.589Z,100247.25
2023-03-16T12:54:27.638Z,100235.63
2023-03-16T12:57:01.967Z,100242.88
2023-03-16T12:59:38.342Z,100243.31
2023-03-16T13:02:11.875Z,100256.34
2023-03-16T13:04:41.657Z,100250.97
2023-03-16T13:07:12.088Z,100259.50
2023-03-16T13:09:43.919Z,100256.78
2023-03-16T13:12:26.130Z,100254.91
2023-03-16T13:17:42.971Z,100258.44
2023-03-16T13:20:31.176Z,100267.59
2023-03-16T13:23:11.004Z,100257.19
2023-03-16T13:25:42.822Z,100262.97
2023-03-16T13:28:13.303Z,100258.41
2023-03-16T13:30:46.395Z,100265.06
2023-03-16T13:33:20.524Z,100267.16
2023-03-16T13:35:49.140Z,100268.41
2023-03-16T13:38:17.581Z,100258.44
2023-03-16T13:40:48.966Z,100262.19
2023-03-16T13:43:17.230Z,100271.72
2023-03-16T13:45:45.283Z,100265.50
2023-03-16T13:48:13.765Z,100267.34
2023-03-16T13:50:43.398Z,100271.50
2023-03-16T13:53:15.047Z,100264.25
2023-03-16T13:55:45.552Z,100268.78
2023-03-16T13:58:20.752Z,100270.47
2023-03-16T14:00:48.859Z,100262.97
2023-03-16T14:03:22.431Z,100264.19
2023-03-16T14:05:54.051Z,100280.81
2023-03-16T14:08:23.405Z,100276.44
2023-03-16T14:10:51.527Z,100265.06
2023-03-16T14:13:27.808Z,100275.88
2023-03-16T14:15:56.543Z,100275.44
2023-03-16T14:18:25.750Z,100279.56
2023-03-16T14:20:55.635Z,100271.66
2023-03-16T14:23:24.658Z,100275.44
2023-03-16T14:25:53.657Z,100279.16
2023-03-16T14:28:23.629Z,100284.53
2023-03-16T14:30:52.105Z,100272.94
2023-03-16T14:33:28.524Z,100270.41
2023-03-16T14:35:58.636Z,100279.94
2023-03-16T14:38:32.063Z,100288.03
2023-03-16T14:41:04.012Z,100273.69
2023-03-16T14:43:33.796Z,100295.44
2023-03-16T14:46:02.038Z,100288.34
2023-03-16T14:48:30.369Z,100292.28
2023-03-16T14:51:02.016Z,100295.56
2023-03-16T14:53:30.230Z,100293.03
2023-03-16T14:55:58.462Z,100303.69
2023-03-16T14:58:26.692Z,100291.50
2023-03-16T15:00:54.839Z,100306.06
2023-03-16T15:03:33.860Z,100307.00
2023-03-16T15:06:03.345Z,100300.69
2023-03-16T15:08:32.847Z,100309.94
2023-03-16T15:11:01.861Z,100311.94
2023-03-16T15:13:53.236Z,100319.19
2023-03-16T15:16:22.099Z,100314.31
2023-03-16T15:18:50.137Z,100309.94
2023-03-16T15:21:21.051Z,100308.00
2023-03-16T15:23:49.092Z,100310.25
2023-03-16T15:26:18.336Z,100329.72
2023-03-16T15:28:46.412Z,100317.00
2023-03-16T15:31:14.783Z,100321.97
2023-03-16T15:33:42.772Z,100314.31
2023-03-16T15:36:14.682Z,100319.75
2023-03-16T15:38:44.786Z,100314.16
2023-03-16T15:41:12.686Z,100321.88
2023-03-16T15:43:40.736Z,100326.84
2023-03-16T15:46:09.017Z,100324.97
2023-03-16T15:48:37.034Z,100329.75
2023-03-16T15:51:08.415Z,100328.09
2023-03-16T15:53:37.889Z,100337.09
2023-03-16T15:56:07.803Z,100341.91
2023-03-16T15:58:36.306Z,100344.25
2023-03-16T16:01:04.660Z,100339.94
2023-03-16T16:03:33.781Z,100351.63
2023-03-16T16:06:01.969Z,100356.59
2023-03-16T16:08:30.056Z,100359.13
2023-03-16T16:10:58.052Z,100360.38
2023-03-16T16:13:43.143Z,100364.56
2023-03-16T16:16:13.343Z,100374.75
2023-03-16T16:18:41.581Z,100366.28
2023-03-16T16:21:15.469Z,100368.56
2023-03-16T16:23:43.760Z,100382.72
2023-03-16T16:26:19.754Z,100385.81
2023-03-16T16:28:49.149Z,100388.72
2023-03-16T16:31:17.278Z,100389.16
2023-03-16T16:33:45.813Z,100395.00
2023-03-16T16:36:15.129Z,100397.06
2023-03-16T16:38:43.088Z,100399.16
2023-03-16T16:41:11.565Z,100404.97
2023-03-16T16:43:40.417Z,100404.16
2023-03-16T16:46:15.378Z,100411.63
2023-03-16T16:48:44.986Z,100412.06
2023-03-16T16:51:17.518Z,100427.44
2023-03-16T16:53:45.688Z,100424.09
2023-03-16T16:56:14.190Z,100424.09
2023-03-16T16:58:42.320Z,100428.88
2023-03-16T17:01:14.342Z,100434.47
2023-03-16T17:03:42.307Z,100435.72
2023-03-16T17:06:15.568Z,100441.13
2023-03-16T17:08:43.926Z,100444.88
2023-03-16T17:11:15.428Z,100437.81
2023-03-16T17:13:46.205Z,100440.72
2023-03-16T17:16:17.199Z,100454.44
2023-03-16T17:18:45.255Z,100445.72
2023-03-16T17:21:17.290Z,100452.13
2023-03-16T17:23:45.310Z,100454.84
2023-03-16T17:26:16.115Z,100455.06
2023-03-16T17:28:45.639Z,100461.47
2023-03-16T17:31:14.014Z,100459.00
2023-03-16T17:33:43.391Z,100458.19
2023-03-16T17:36:13.561Z,100467.31
2023-03-16T17:38:41.658Z,100471.88
2023-03-16T17:41:12.711Z,100470.22
2023-03-16T17:43:40.678Z,100475.00
2023-03-16T17:47:04.640Z,100472.28
2023-03-16T17:49:33.998Z,100478.13
2023-03-16T17:52:02.316Z,100483.50
2023-03-16T17:54:30.922Z,100488.09
2023-03-16T17:56:58.849Z,100489.94
2023-03-16T17:59:27.540Z,100490.97
2023-03-16T18:01:55.761Z,100500.13
2023-03-16T18:04:25.087Z,100498.44
2023-03-16T18:06:55.507Z,100503.00
2023-03-16T18:09:23.510Z,100504.06
2023-03-16T18:11:51.876Z,100505.91
2023-03-16T18:14:24.657Z,100501.56
2023-03-16T18:16:52.816Z,100506.31
2023-03-16T18:19:23.859Z,100515.03
2023-03-16T18:21:53.651Z,100519.81
2023-03-16T18:24:26.676Z,100516.28
2023-03-16T18:26:55.405Z,100517.09
2023-03-16T18:29:24.141Z,100520.84
2023-03-16T18:31:53.017Z,100517.34
2023-03-16T18:34:22.170Z,100521.88
2023-03-16T18:36:50.091Z,100521.88
2023-03-16T18:39:19.718Z,100525.84
2023-03-16T18:41:49.069Z,100524.16
2023-03-16T18:44:18.926Z,100524.41
2023-03-16T18:46:50.126Z,100528.94
2023-03-16T18:49:19.465Z,100520.00
2023-03-16T18:51:49.720Z,100529.16
2023-03-16T18:54:21.650Z,100524.78
2023-03-16T18:56:53.086Z,100529.56
2023-03-16T18:59:21.219Z,100531.84
2023-03-16T19:01:49.315Z,100533.50
2023-03-16T19:04:20.180Z,100535.38
2023-03-16T19:06:48.376Z,100526.66
2023-03-16T19:09:22.975Z,100534.56
2023-03-16T19:11:52.123Z,100533.91
2023-03-16T19:14:21.605Z,100534.97
2023-03-16T19:16:49.628Z,100540.34
2023-03-16T19:19:21.332Z,100544.72
2023-03-16T19:21:49.963Z,100546.59
2023-03-16T19:24:21.490Z,100552.78
2023-03-16T19:26:49.656Z,100550.91
2023-03-16T19:29:19.217Z,100547.41
2023-03-16T19:32:05.834Z,100542.00
2023-03-16T19:34:33.795Z,100552.78
2023-03-16T19:37:01.729Z,100555.50
2023-03-16T19:39:29.617Z,100552.78
2023-03-16T19:41:58.914Z,100555.50
2023-03-16T19:44:28.590Z,100553.63
2023-03-16T19:46:56.668Z,100560.88
2023-03-16T19:49:26.119Z,100558.19
2023-03-16T19:51:55.429Z,100556.53
2023-03-16T19:54:24.300Z,100560.88
2023-03-16T19:56:52.562Z,100561.94
2023-03-16T19:59:20.633Z,100561.06
2023-03-16T20:01:50.472Z,100565.66
2023-03-16T20:04:19.509Z,100569.41
2023-03-16T20:06:49.768Z,100564.81
2023-03-16T20:09:18.159Z,100569.41
2023-03-16T20:11:46.178Z,100569.41
2023-03-16T20:14:19.602Z,100566.69
2023-03-16T20:16:49.099Z,100566.69
2023-03-16T20:19:17.074Z,100575.81
2023-03-16T20:21:45.018Z,100572.50
2023-03-16T20:24:16.294Z,100580.38
2023-03-16T20:26:44.510Z,100576.66
2023-03-16T20:29:16.878Z,100583.06
2023-03-16T20:31:44.827Z,100582.25
2023-03-16T20:34:16.243Z,100587.63
2023-03-16T20:36:44.299Z,100581.41
2023-03-16T20:39:12.471Z,100583.88
2023-03-16T20:41:40.413Z,100596.34
2023-03-16T20:44:11.042Z,100594.69
2023-03-16T20:46:41.492Z,100595.53
2023-03-16T20:49:12.508Z,100586.59
2023-03-16T20:51:42.003Z,100592.84
2023-03-16T20:54:09.950Z,100600.94
2023-03-16T20:56:37.912Z,100598.22
2023-03-16T20:59:05.829Z,100592.84
2023-03-16T21:01:34.007Z,100596.56
2023-03-16T21:04:01.996Z,100601.94
2023-03-16T21:06:30.644Z,100600.06
2023-03-16T21:09:01.207Z,100601.13
2023-03-16T21:11:30.926Z,100596.78
2023-03-16T21:13:58.886Z,100596.78
2023-03-16T21:16:26.935Z,100602.16
2023-03-16T21:18:55.022Z,100600.47
2023-03-16T21:21:23.048Z,100592.41
2023-03-16T21:23:51.008Z,100600.47
2023-03-16T21:26:23.247Z,100605.25
2023-03-16T21:29:00.733Z,100613.34
2023-03-16T21:31:44.286Z,100613.34
2023-03-16T21:34:19.157Z,100607.94
2023-03-16T21:36:47.214Z,100619.75
2023-03-16T21:39:18.291Z,100617.03
2023-03-16T21:41:49.936Z,100611.66
2023-03-16T21:44:18.709Z,100613.53
2023-03-16T21:46:47.319Z,100615.41
2023-03-16T21:49:15.880Z,100617.03
2023-03-16T21:51:43.897Z,100614.34
2023-03-16T21:54:13.960Z,100622.44
2023-03-16T21:56:42.574Z,100614.16
2023-03-16T21:59:12.012Z,100613.34
2023-03-16T22:01:54.427Z,100619.56
2023-03-16T22:04:28.413Z,100619.75
2023-03-16T22:06:56.380Z,100616.22
2023-03-16T22:09:28.896Z,100615.41
2023-03-16T22:11:56.794Z,100615.41
2023-03-16T22:14:27.260Z,100612.06
2023-03-16T22:16:55.590Z,100617.66
2023-03-16T22:19:23.513Z,100613.09
2023-03-16T22:21:51.633Z,100622.22
2023-03-16T22:24:20.488Z,100625.13
2023-03-16T22:26:49.127Z,100619.94
2023-03-16T22:29:25.403Z,100619.94
2023-03-16T22:31:57.568Z,100620.13
2023-03-16T22:34:28.667Z,100616.59
2023-03-16T22:36:56.887Z,100612.44
2023-03-16T22:39:24.926Z,100615.97
2023-03-16T22:41:53.002Z,100622.22
2023-03-16T22:44:22.681Z,100623.22
2023-03-16T22:46:50.904Z,100611.63
2023-03-16T22:49:24.433Z,100626.13
2023-03-16T22:51:52.620Z,100625.31
2023-03-16T22:54:21.321Z,100627.16
2023-03-16T22:56:49.398Z,100634.41
2023-03-16T22:59:18.741Z,100630.91
2023-03-16T23:01:47.556Z,100630.06
2023-03-16T23:04:15.757Z,100630.91
2023-03-16T23:06:45.115Z,100633.59
2023-03-16T23:09:13.877Z,100635.25
2023-03-16T23:11:43.577Z,100637.94
2023-03-16T23:14:13.805Z,100642.31
2023-03-16T23:16:41.965Z,100643.97
2023-03-16T23:19:24.490Z,100635.88
2023-03-16T23:21:55.719Z,100647.69
2023-03-16T23:24:23.641Z,100648.53
2023-03-16T23:26:51.676Z,100661.19
2023-03-16T23:29:20.146Z,100659.72
2023-03-16T23:31:48.692Z,100662.59
2023-03-16T23:34:17.742Z,100658.25
2023-03-16T23:36:45.782Z,100656.38
2023-03-16T23:39:15.118Z,100665.53
2023-03-16T23:41:43.857Z,100654.75
2023-03-16T23:44:12.964Z,100663.00
2023-03-16T23:46:41.448Z,100662.19
2023-03-16T23:49:11.512Z,100657.81
2023-03-16T23:51:39.470Z,100664.25
2023-03-16T23:54:12.637Z,100670.47
2023-03-16T23:56:42.045Z,100673.97
2023-03-16T23:59:10.670Z,100672.34
